createdAt,value
2022-09-05T00:01:27.278Z,56.59
2022-09-05T00:03:08.296Z,56.25
2022-09-05T00:05:10.670Z,56.80
2022-09-05T00:06:51.201Z,56.24
2022-09-05T00:08:32.677Z,56.45
2022-09-05T00:10:20.720Z,56.54
2022-09-05T00:11:57.313Z,56.89
2022-09-05T00:13:32.975Z,56.42
2022-09-05T00:15:16.647Z,56.92
2022-09-05T00:17:05.706Z,57.56
2022-09-05T00:21:08.180Z,57.39
2022-09-05T00:24:29.816Z,57.34
2022-09-05T00:24:35.504Z,57.78
2022-09-05T00:25:31.838Z,57.79
2022-09-05T00:27:22.825Z,57.52
2022-09-05T00:29:10.035Z,57.65
2022-09-05T00:31:55.708Z,57.23
2022-09-05T00:33:32.920Z,57.53
2022-09-05T00:35:43.665Z,57.84
2022-09-05T00:37:28.127Z,58.37
2022-09-05T00:39:30.180Z,58.03
2022-09-05T00:41:11.120Z,58.18
2022-09-05T00:42:44.619Z,58.40
2022-09-05T00:44:20.426Z,57.90
2022-09-05T00:46:32.287Z,58.08
2022-09-05T00:48:22.656Z,58.28
2022-09-05T00:50:34.557Z,58.28
2022-09-05T00:52:09.101Z,59.04
2022-09-05T00:53:43.791Z,58.08
2022-09-05T00:55:27.648Z,59.38
2022-09-05T00:57:20.646Z,58.87
2022-09-05T00:59:29.906Z,59.39
2022-09-05T01:01:12.080Z,58.84
2022-09-05T01:03:13.099Z,58.93
2022-09-05T01:05:06.730Z,58.95
2022-09-05T01:06:50.436Z,59.47
2022-09-05T01:08:44.131Z,59.29
2022-09-05T01:10:26.466Z,60.19
2022-09-05T01:12:14.601Z,59.28
2022-09-05T01:13:54.707Z,59.07
2022-09-05T01:16:02.008Z,59.13
2022-09-05T01:17:57.265Z,59.36
2022-09-05T01:19:56.875Z,59.85
2022-09-05T01:22:17.929Z,60.11
2022-09-05T01:23:57.463Z,60.28
2022-09-05T01:25:31.435Z,59.87
2022-09-05T01:27:33.858Z,60.09
2022-09-05T01:29:58.608Z,60.77
2022-09-05T01:31:39.456Z,60.11
2022-09-05T01:33:19.843Z,61.77
2022-09-05T01:35:36.463Z,61.70
2022-09-05T01:37:26.649Z,62.33
2022-09-05T01:40:10.648Z,62.34
2022-09-05T01:41:24.450Z,62.30
2022-09-05T01:43:14.312Z,62.16
2022-09-05T01:45:04.758Z,61.34
2022-09-05T01:46:43.193Z,61.33
2022-09-05T01:48:30.395Z,61.71
2022-09-05T01:50:25.788Z,61.59
2022-09-05T01:52:05.009Z,61.50
2022-09-05T01:54:24.097Z,61.81
2022-09-05T01:56:14.218Z,61.92
2022-09-05T01:57:49.689Z,62.75
2022-09-05T01:59:34.340Z,62.72
2022-09-05T02:01:30.090Z,62.22
2022-09-05T02:03:10.188Z,62.48
2022-09-05T02:05:03.048Z,62.36
2022-09-05T02:06:35.745Z,62.56
2022-09-05T02:08:16.448Z,62.52
2022-09-05T02:10:12.920Z,62.63
2022-09-05T02:12:04.196Z,62.61
2022-09-05T02:13:35.934Z,62.90
2022-09-05T02:15:13.829Z,62.71
2022-09-05T02:16:47.242Z,62.40
2022-09-05T02:18:23.829Z,62.61
2022-09-05T02:20:02.314Z,62.58
2022-09-05T02:21:40.673Z,62.81
2022-09-05T02:23:42.026Z,62.08
2022-09-05T02:26:01.410Z,63.11
2022-09-05T02:28:04.930Z,62.83
2022-09-05T02:29:55.603Z,63.61
2022-09-05T02:31:29.180Z,63.84
2022-09-05T02:33:26.546Z,63.93
2022-09-05T02:35:09.457Z,64.69
2022-09-05T02:36:47.628Z,64.41
2022-09-05T02:44:39.462Z,65.04
2022-09-05T02:45:09.109Z,64.50
2022-09-05T02:45:09.701Z,64.31
2022-09-05T02:45:19.111Z,64.22
2022-09-05T02:47:05.472Z,64.36
2022-09-05T02:48:50.463Z,64.30
2022-09-05T02:55:14.959Z,63.89
2022-09-05T02:57:27.164Z,64.42
2022-09-05T02:57:37.220Z,64.94
2022-09-05T02:57:41.941Z,65.77
2022-09-05T02:59:05.829Z,64.73
2022-09-05T03:00:40.356Z,63.90
2022-09-05T03:02:30.501Z,64.37
2022-09-05T03:04:31.223Z,64.77
2022-09-05T03:06:12.745Z,65.36
2022-09-05T03:08:03.502Z,65.25
2022-09-05T03:10:10.613Z,64.30
2022-09-05T03:12:00.538Z,64.74
2022-09-05T03:14:18.187Z,64.58
2022-09-05T03:16:08.657Z,64.57
2022-09-05T03:17:53.572Z,64.92
2022-09-05T03:19:49.807Z,65.07
2022-09-05T03:21:59.229Z,64.92
2022-09-05T03:24:08.880Z,65.66
2022-09-05T03:26:06.046Z,66.02
2022-09-05T03:27:52.805Z,65.81
2022-09-05T03:29:42.535Z,66.48
2022-09-05T03:31:42.254Z,65.80
2022-09-05T03:33:43.299Z,66.10
2022-09-05T03:35:33.923Z,65.63
2022-09-05T03:37:13.066Z,65.81
2022-09-05T03:39:14.874Z,65.99
2022-09-05T03:41:08.324Z,65.95
2022-09-05T03:42:49.055Z,66.33
2022-09-05T03:44:22.333Z,66.19
2022-09-05T03:46:08.413Z,66.73
2022-09-05T03:47:48.996Z,66.51
2022-09-05T03:53:11.500Z,67.13
2022-09-05T03:57:07.548Z,67.45
2022-09-05T03:57:17.661Z,67.48
2022-09-05T03:57:22.794Z,67.48
2022-09-05T03:58:18.094Z,66.96
2022-09-05T03:59:52.936Z,66.51
2022-09-05T04:08:10.687Z,66.60
2022-09-05T04:08:10.847Z,67.69
2022-09-05T04:08:19.486Z,68.04
2022-09-05T04:08:20.870Z,69.57
2022-09-05T04:09:51.929Z,69.21
2022-09-05T04:12:03.465Z,67.85
2022-09-05T04:13:44.998Z,67.64
2022-09-05T04:15:34.813Z,68.12
2022-09-05T04:17:31.399Z,67.75
2022-09-05T04:19:14.700Z,68.65
2022-09-05T04:20:55.123Z,68.96
2022-09-05T04:22:50.265Z,68.99
2022-09-05T04:24:46.871Z,68.80
2022-09-05T04:26:53.710Z,67.72
2022-09-05T04:28:53.315Z,67.85
2022-09-05T04:30:50.502Z,68.13
2022-09-05T04:32:40.080Z,68.67
2022-09-05T04:34:51.112Z,68.40
2022-09-05T04:36:33.655Z,68.39
2022-09-05T04:38:15.344Z,68.46
2022-09-05T04:39:47.223Z,68.98
2022-09-05T04:41:36.531Z,69.36
2022-09-05T04:43:19.498Z,71.01
2022-09-05T04:45:02.176Z,72.15
2022-09-05T04:46:47.883Z,72.40
2022-09-05T04:48:26.598Z,73.80
2022-09-05T04:50:08.905Z,73.86
2022-09-05T04:52:02.024Z,73.29
2022-09-05T04:53:46.444Z,74.61
2022-09-05T04:55:26.739Z,74.95
2022-09-05T04:57:30.472Z,74.24
2022-09-05T05:01:00.357Z,73.63
2022-09-05T05:06:02.966Z,73.75
2022-09-05T05:06:16.664Z,73.79
2022-09-05T05:06:16.669Z,73.82
2022-09-05T05:07:07.845Z,73.98
2022-09-05T05:08:43.630Z,74.71
2022-09-05T05:16:29.869Z,74.27
2022-09-05T05:17:55.479Z,74.52
2022-09-05T05:18:02.408Z,74.40
2022-09-05T05:18:15.633Z,74.02
2022-09-05T05:19:24.755Z,74.26
2022-09-05T05:21:14.153Z,73.84
2022-09-05T05:22:59.261Z,73.33
2022-09-05T05:24:45.891Z,73.12
2022-09-05T05:26:32.509Z,73.87
2022-09-05T05:28:24.764Z,73.59
2022-09-05T05:30:08.188Z,73.64
2022-09-05T05:32:00.848Z,73.67
2022-09-05T05:33:35.356Z,74.05
2022-09-05T05:35:14.985Z,73.72
2022-09-05T05:37:02.993Z,73.84
2022-09-05T05:38:37.716Z,74.55
2022-09-05T05:40:15.327Z,74.47
2022-09-05T05:41:53.438Z,74.72
2022-09-05T05:43:34.844Z,74.38
2022-09-05T05:45:17.655Z,74.02
2022-09-05T05:47:26.831Z,73.91
2022-09-05T05:49:15.749Z,74.06
2022-09-05T05:52:02.554Z,74.14
2022-09-05T05:53:43.448Z,74.11
2022-09-05T05:55:52.392Z,74.04
2022-09-05T05:57:29.510Z,73.22
2022-09-05T05:59:11.279Z,74.07
2022-09-05T06:00:55.049Z,73.38
2022-09-05T06:02:39.048Z,73.47
2022-09-05T06:04:25.941Z,73.33
2022-09-05T06:06:28.772Z,72.62
2022-09-05T06:11:02.273Z,73.03
2022-09-05T06:14:51.930Z,72.85
2022-09-05T06:14:55.647Z,71.96
2022-09-05T06:15:01.050Z,71.88
2022-09-05T06:16:47.583Z,72.47
2022-09-05T06:18:51.859Z,71.96
2022-09-05T06:22:11.590Z,71.15
2022-09-05T06:23:03.910Z,71.68
2022-09-05T06:24:58.491Z,71.07
2022-09-05T06:27:19.294Z,70.54
2022-09-05T06:29:15.626Z,70.75
2022-09-05T06:30:57.185Z,70.77
2022-09-05T06:33:27.537Z,70.84
2022-09-05T06:35:08.337Z,70.69
2022-09-05T06:36:59.163Z,70.11
2022-09-05T06:39:00.135Z,69.25
2022-09-05T06:40:58.443Z,70.00
2022-09-05T06:42:43.665Z,68.60
2022-09-05T06:44:27.697Z,69.24
2022-09-05T06:46:52.889Z,68.56
2022-09-05T06:48:44.293Z,67.48
2022-09-05T06:50:24.649Z,68.00
2022-09-05T06:52:28.958Z,67.52
2022-09-05T06:54:11.237Z,67.62
2022-09-05T06:56:26.038Z,67.29
2022-09-05T06:58:35.569Z,66.14
2022-09-05T07:00:22.677Z,66.21
2022-09-05T07:02:34.646Z,65.39
2022-09-05T07:05:37.171Z,65.18
2022-09-05T07:07:01.443Z,64.89
2022-09-05T07:08:52.059Z,64.12
2022-09-05T07:10:39.398Z,64.12
2022-09-05T07:12:23.131Z,64.82
2022-09-05T07:13:55.340Z,63.99
2022-09-05T07:15:37.265Z,63.26
2022-09-05T07:17:19.980Z,63.43
2022-09-05T07:19:00.128Z,62.68
2022-09-05T07:21:16.672Z,62.60
2022-09-05T07:22:55.896Z,62.34
2022-09-05T07:24:54.462Z,61.21
2022-09-05T07:26:53.852Z,60.74
2022-09-05T07:28:29.968Z,61.49
2022-09-05T07:30:02.588Z,60.11
2022-09-05T07:31:38.406Z,60.28
2022-09-05T07:33:10.527Z,60.04
2022-09-05T07:34:44.333Z,60.35
2022-09-05T07:36:19.901Z,59.14
2022-09-05T07:38:05.120Z,58.04
2022-09-05T07:39:40.867Z,58.21
2022-09-05T07:41:35.831Z,57.93
2022-09-05T07:43:18.839Z,57.27
2022-09-05T07:44:57.992Z,56.48
2022-09-05T07:46:35.151Z,56.14
2022-09-05T07:48:14.480Z,56.06
2022-09-05T07:50:49.903Z,56.63
2022-09-05T07:56:50.998Z,56.02
2022-09-05T07:56:56.083Z,56.08
2022-09-05T07:57:08.834Z,56.11
2022-09-05T07:57:51.378Z,55.29
2022-09-05T07:59:26.443Z,55.57
2022-09-05T08:00:58.577Z,55.14
2022-09-05T08:02:31.302Z,54.52
2022-09-05T08:04:05.703Z,54.38
2022-09-05T08:05:50.358Z,54.39
2022-09-05T08:07:48.854Z,54.31
2022-09-05T08:10:05.940Z,53.83
2022-09-05T08:11:23.673Z,53.17
2022-09-05T08:13:23.883Z,52.93
2022-09-05T08:15:03.908Z,51.58
2022-09-05T08:16:38.485Z,51.70
2022-09-05T08:18:23.933Z,51.02
2022-09-05T08:20:14.006Z,51.45
2022-09-05T08:21:50.776Z,50.30
2022-09-05T08:23:47.197Z,50.18
2022-09-05T08:25:23.265Z,49.81
2022-09-05T08:27:03.325Z,49.10
2022-09-05T08:28:53.687Z,48.91
2022-09-05T08:30:28.004Z,48.34
2022-09-05T08:32:09.249Z,47.61
2022-09-05T08:33:41.665Z,47.44
2022-09-05T08:35:20.165Z,46.93
2022-09-05T08:36:52.691Z,46.17
2022-09-05T08:38:24.489Z,46.31
2022-09-05T08:40:11.484Z,46.28
2022-09-05T08:42:05.850Z,46.29
2022-09-05T08:46:39.789Z,45.90
2022-09-05T08:46:44.171Z,45.64
2022-09-05T08:48:21.606Z,45.57
2022-09-05T08:50:01.298Z,45.20
2022-09-05T08:51:41.836Z,44.17
2022-09-05T08:53:46.862Z,45.31
2022-09-05T08:55:18.984Z,42.74
2022-09-05T08:57:16.590Z,43.08
2022-09-05T08:59:32.096Z,42.60
2022-09-05T09:01:44.542Z,41.89
2022-09-05T09:06:14.110Z,41.53
2022-09-05T09:08:01.226Z,42.28
2022-09-05T09:09:38.977Z,40.03
2022-09-05T09:11:26.982Z,40.70
2022-09-05T09:13:29.746Z,39.40
2022-09-05T09:15:45.117Z,39.26
2022-09-05T09:17:45.554Z,39.46
2022-09-05T09:19:40.382Z,38.55
2022-09-05T09:21:25.511Z,38.69
2022-09-05T09:23:03.210Z,38.24
2022-09-05T09:24:37.934Z,38.10
2022-09-05T09:26:15.967Z,38.06
2022-09-05T09:28:48.711Z,37.94
2022-09-05T09:30:04.085Z,36.46
2022-09-05T09:32:03.463Z,36.63
2022-09-05T09:33:47.733Z,34.64
2022-09-05T09:35:21.338Z,34.49
2022-09-05T09:37:02.472Z,32.62
2022-09-05T09:39:37.113Z,33.80
2022-09-05T09:41:25.157Z,34.63
2022-09-05T09:43:18.261Z,32.32
2022-09-05T09:45:23.597Z,33.10
2022-09-05T09:47:03.649Z,32.78
2022-09-05T09:48:47.194Z,32.29
2022-09-05T09:50:58.800Z,31.97
2022-09-05T09:52:53.166Z,32.31
2022-09-05T09:54:34.088Z,31.62
2022-09-05T09:56:19.312Z,32.91
2022-09-05T09:58:01.040Z,31.70
2022-09-05T09:59:54.870Z,30.45
2022-09-05T10:01:36.881Z,29.90
2022-09-05T10:06:39.449Z,29.37
2022-09-05T10:10:38.860Z,29.79
2022-09-05T10:10:44.577Z,27.56
2022-09-05T10:10:54.004Z,26.67
2022-09-05T10:12:19.849Z,26.23
2022-09-05T10:14:00.809Z,27.27
2022-09-05T10:15:54.459Z,27.41
2022-09-05T10:17:35.757Z,27.03
2022-09-05T10:20:10.071Z,27.73
2022-09-05T10:22:33.231Z,27.55
2022-09-05T10:24:13.675Z,30.55
2022-09-05T10:26:09.604Z,27.12
2022-09-05T10:27:50.423Z,25.92
2022-09-05T10:29:43.149Z,26.66
2022-09-05T10:33:30.929Z,27.19
2022-09-05T10:35:15.025Z,26.32
2022-09-05T10:35:37.909Z,27.33
2022-09-05T10:37:12.007Z,28.00
2022-09-05T10:38:45.971Z,26.54
2022-09-05T10:40:23.045Z,27.13
2022-09-05T10:42:03.625Z,27.46
2022-09-05T10:43:47.263Z,26.33
2022-09-05T10:45:33.362Z,25.45
2022-09-05T10:47:35.310Z,25.81
2022-09-05T10:49:11.035Z,25.64
2022-09-05T10:50:45.115Z,25.77
2022-09-05T10:52:52.911Z,26.21
2022-09-05T10:54:30.404Z,25.19
2022-09-05T10:56:26.104Z,27.12
2022-09-05T10:58:29.057Z,26.69
2022-09-05T11:02:27.589Z,26.45
2022-09-05T11:02:34.673Z,27.05
2022-09-05T11:04:20.051Z,26.01
2022-09-05T11:05:58.579Z,24.83
2022-09-05T11:08:02.211Z,25.24
2022-09-05T11:09:46.403Z,24.91
2022-09-05T11:11:29.552Z,24.19
2022-09-05T11:13:16.348Z,24.20
2022-09-05T11:14:56.275Z,26.02
2022-09-05T11:16:43.673Z,24.79
2022-09-05T11:18:56.117Z,25.51
2022-09-05T11:20:46.555Z,25.13
2022-09-05T11:22:23.682Z,24.81
2022-09-05T11:23:59.930Z,25.06
2022-09-05T11:25:40.113Z,26.14
2022-09-05T11:27:50.683Z,26.00
2022-09-05T11:29:25.698Z,25.24
2022-09-05T11:30:58.307Z,25.54
2022-09-05T11:36:23.641Z,26.14
2022-09-05T11:38:53.639Z,23.62
2022-09-05T11:39:48.468Z,23.82
2022-09-05T11:39:50.313Z,24.11
2022-09-05T11:40:57.773Z,24.06
2022-09-05T11:42:48.860Z,25.77
2022-09-05T11:44:35.801Z,24.08
2022-09-05T11:46:46.114Z,24.99
2022-09-05T11:48:32.792Z,25.12
2022-09-05T11:50:26.404Z,23.60
2022-09-05T11:52:16.856Z,24.86
2022-09-05T11:53:48.678Z,23.29
2022-09-05T11:55:51.373Z,24.16
2022-09-05T11:57:44.677Z,23.83
2022-09-05T11:59:33.813Z,24.41
2022-09-05T12:01:42.092Z,24.20
2022-09-05T12:03:57.323Z,24.01
2022-09-05T12:05:48.447Z,23.96
2022-09-05T12:08:09.821Z,24.03
2022-09-05T12:09:50.183Z,24.11
2022-09-05T12:11:43.979Z,24.09
2022-09-05T12:13:37.822Z,23.89
2022-09-05T12:15:29.678Z,23.60
2022-09-05T12:17:35.443Z,23.98
2022-09-05T12:19:29.388Z,23.67
2022-09-05T12:21:41.220Z,24.04
2022-09-05T12:24:13.498Z,24.42
2022-09-05T12:27:40.394Z,22.77
2022-09-05T12:27:52.481Z,23.32
2022-09-05T12:29:47.040Z,22.43
2022-09-05T12:33:43.848Z,23.02
2022-09-05T12:36:04.423Z,23.34
2022-09-05T12:36:05.859Z,23.35
2022-09-05T12:40:56.038Z,23.01
2022-09-05T12:41:43.449Z,23.25
2022-09-05T12:42:09.615Z,23.45
2022-09-05T12:44:38.598Z,23.56
2022-09-05T12:45:25.433Z,22.53
2022-09-05T12:47:18.713Z,22.96
2022-09-05T12:49:07.736Z,22.75
2022-09-05T12:50:40.579Z,22.35
2022-09-05T12:52:22.159Z,22.72
2022-09-05T12:53:59.357Z,24.16
2022-09-05T12:55:49.411Z,22.82
2022-09-05T13:01:36.543Z,21.50
2022-09-05T13:02:58.987Z,22.26
2022-09-05T13:03:08.459Z,22.45
2022-09-05T13:04:18.218Z,23.38
2022-09-05T13:06:26.111Z,23.31
2022-09-05T13:07:58.462Z,24.30
2022-09-05T13:13:02.593Z,23.07
2022-09-05T13:14:48.923Z,21.88
2022-09-05T13:15:00.653Z,23.05
2022-09-05T13:15:43.597Z,23.82
2022-09-05T13:17:15.880Z,22.27
2022-09-05T13:18:47.569Z,22.07
2022-09-05T13:20:39.531Z,21.84
2022-09-05T13:22:14.996Z,21.50
2022-09-05T13:24:12.369Z,21.72
2022-09-05T13:25:45.904Z,22.80
2022-09-05T13:27:23.562Z,22.26
2022-09-05T13:29:10.160Z,22.95
2022-09-05T13:37:54.041Z,23.35
2022-09-05T13:37:59.137Z,22.19
2022-09-05T13:38:00.007Z,23.34
2022-09-05T13:38:01.019Z,23.07
2022-09-05T13:38:52.545Z,23.79
2022-09-05T13:40:27.386Z,23.53
2022-09-05T13:42:03.743Z,23.15
2022-09-05T13:43:39.255Z,23.48
2022-09-05T13:45:18.593Z,23.27
2022-09-05T13:46:58.518Z,23.80
2022-09-05T13:50:52.983Z,23.55
2022-09-05T13:52:34.173Z,24.07
2022-09-05T13:54:36.421Z,24.70
2022-09-05T13:56:28.330Z,25.55
2022-09-05T13:58:07.362Z,24.16
2022-09-05T13:59:42.464Z,23.28
2022-09-05T14:01:30.832Z,23.67
2022-09-05T14:03:39.027Z,23.11
2022-09-05T14:05:50.913Z,23.42
2022-09-05T14:07:47.165Z,24.08
2022-09-05T14:09:40.964Z,24.59
2022-09-05T14:11:31.769Z,24.31
2022-09-05T14:13:15.295Z,24.66
2022-09-05T14:15:11.292Z,23.90
2022-09-05T14:16:53.861Z,24.49
2022-09-05T14:18:54.705Z,24.21
2022-09-05T14:20:50.283Z,24.92
2022-09-05T14:22:48.698Z,23.80
2022-09-05T14:24:27.876Z,24.61
2022-09-05T14:26:03.755Z,24.34
2022-09-05T14:27:41.073Z,24.53
2022-09-05T14:29:22.573Z,24.32
2022-09-05T14:33:48.834Z,24.71
2022-09-05T14:37:53.549Z,24.10
2022-09-05T14:37:55.341Z,24.75
2022-09-05T14:38:00.798Z,24.45
2022-09-05T14:39:31.279Z,23.95
2022-09-05T14:41:29.440Z,24.93
2022-09-05T14:43:17.503Z,24.79
2022-09-05T14:45:23.961Z,24.67
2022-09-05T14:47:06.776Z,25.00
2022-09-05T14:48:45.729Z,24.52
2022-09-05T14:50:35.053Z,25.58
2022-09-05T14:52:15.364Z,26.17
2022-09-05T14:56:23.131Z,25.37
2022-09-05T15:02:40.918Z,24.56
2022-09-05T15:02:44.501Z,24.98
2022-09-05T15:02:51.667Z,23.59
2022-09-05T15:05:51.534Z,23.91
2022-09-05T15:07:28.952Z,24.32
2022-09-05T15:12:14.945Z,23.82
2022-09-05T15:12:17.889Z,24.22
2022-09-05T15:13:06.560Z,23.40
2022-09-05T15:14:39.545Z,23.62
2022-09-05T15:16:13.085Z,24.31
2022-09-05T15:17:50.135Z,24.55
2022-09-05T15:20:06.810Z,23.22
2022-09-05T15:21:41.503Z,23.61
2022-09-05T15:23:19.584Z,24.18
2022-09-05T15:25:01.057Z,24.45
2022-09-05T15:26:54.359Z,24.50
2022-09-05T15:28:44.146Z,24.73
2022-09-05T15:30:22.172Z,24.34
2022-09-05T15:32:12.705Z,25.02
2022-09-05T15:33:45.437Z,24.17
2022-09-05T15:35:34.185Z,24.47
2022-09-05T15:37:37.128Z,24.36
2022-09-05T15:39:27.133Z,23.84
2022-09-05T15:41:21.671Z,23.97
2022-09-05T15:42:56.893Z,23.78
2022-09-05T15:44:34.080Z,24.07
2022-09-05T15:46:21.122Z,24.44
2022-09-05T15:48:04.062Z,24.26
2022-09-05T15:49:53.671Z,24.64
2022-09-05T15:51:43.709Z,23.94
2022-09-05T15:53:26.490Z,23.53
2022-09-05T15:55:21.575Z,24.01
2022-09-05T15:56:55.989Z,24.10
2022-09-05T15:58:29.960Z,24.15
2022-09-05T16:00:51.247Z,25.66
2022-09-05T16:02:26.354Z,24.92
2022-09-05T16:05:59.506Z,25.46
2022-09-05T16:10:31.050Z,25.30
2022-09-05T16:10:34.370Z,25.09
2022-09-05T16:10:44.978Z,25.16
2022-09-05T16:12:17.758Z,24.18
2022-09-05T16:13:53.445Z,24.33
2022-09-05T16:20:24.252Z,24.71
2022-09-05T16:23:14.398Z,24.84
2022-09-05T16:23:28.262Z,24.68
2022-09-05T16:23:34.732Z,24.68
2022-09-05T16:23:40.837Z,25.37
2022-09-05T16:25:21.616Z,25.17
2022-09-05T16:26:55.243Z,25.32
2022-09-05T16:28:31.962Z,25.44
2022-09-05T16:30:05.219Z,25.19
2022-09-05T16:32:07.876Z,26.35
2022-09-05T16:33:40.615Z,26.02
2022-09-05T16:35:16.420Z,25.91
2022-09-05T16:37:08.362Z,26.11
2022-09-05T16:38:50.898Z,25.92
2022-09-05T16:40:31.764Z,26.53
2022-09-05T16:42:17.410Z,25.82
2022-09-05T16:43:54.485Z,26.23
2022-09-05T16:45:32.622Z,25.97
2022-09-05T16:47:22.154Z,27.02
2022-09-05T16:49:14.276Z,26.86
2022-09-05T16:50:58.027Z,26.80
2022-09-05T16:52:53.587Z,26.82
2022-09-05T16:54:29.736Z,26.25
2022-09-05T16:56:11.728Z,26.99
2022-09-05T16:58:14.383Z,26.54
2022-09-05T16:59:47.126Z,26.37
2022-09-05T17:01:23.012Z,26.73
2022-09-05T17:03:06.485Z,26.33
2022-09-05T17:05:10.288Z,26.95
2022-09-05T17:06:48.013Z,26.90
2022-09-05T17:08:28.300Z,26.84
2022-09-05T17:10:08.364Z,26.41
2022-09-05T17:12:00.210Z,26.94
2022-09-05T17:13:42.820Z,28.43
2022-09-05T17:15:16.570Z,30.53
2022-09-05T17:16:55.551Z,30.85
2022-09-05T17:18:35.601Z,31.40
2022-09-05T17:20:10.875Z,32.43
2022-09-05T17:24:37.119Z,31.76
2022-09-05T17:29:16.083Z,32.96
2022-09-05T17:29:26.429Z,28.97
2022-09-05T17:29:28.741Z,32.10
2022-09-05T17:31:56.606Z,29.57
2022-09-05T17:33:45.335Z,28.35
2022-09-05T17:35:41.722Z,28.88
2022-09-05T17:37:30.760Z,29.33
2022-09-05T17:39:17.525Z,30.32
2022-09-05T17:41:17.914Z,31.41
2022-09-05T17:42:52.793Z,31.03
2022-09-05T17:44:31.996Z,30.16
2022-09-05T17:46:15.397Z,32.89
2022-09-05T17:47:49.729Z,31.17
2022-09-05T17:49:43.182Z,32.88
2022-09-05T17:51:26.746Z,36.16
2022-09-05T17:53:26.291Z,32.63
2022-09-05T17:54:59.564Z,36.67
2022-09-05T17:56:41.454Z,38.17
2022-09-05T17:58:41.192Z,38.71
2022-09-05T18:00:49.573Z,40.01
2022-09-05T18:02:22.260Z,37.57
2022-09-05T18:04:08.555Z,37.76
2022-09-05T18:06:06.153Z,38.75
2022-09-05T18:07:44.504Z,39.42
2022-09-05T18:12:18.780Z,41.03
2022-09-05T18:14:25.164Z,41.22
2022-09-05T18:15:58.658Z,40.65
2022-09-05T18:17:38.499Z,41.33
2022-09-05T18:19:32.438Z,41.38
2022-09-05T18:21:12.490Z,42.10
2022-09-05T18:23:39.125Z,41.76
2022-09-05T18:25:28.398Z,41.26
2022-09-05T18:27:43.963Z,41.75
2022-09-05T18:29:58.596Z,40.92
2022-09-05T18:31:42.513Z,40.32
2022-09-05T18:33:54.279Z,41.33
2022-09-05T18:35:37.931Z,41.45
2022-09-05T18:37:37.989Z,40.89
2022-09-05T18:39:29.504Z,41.45
2022-09-05T18:41:13.974Z,41.69
2022-09-05T18:42:47.794Z,41.46
2022-09-05T18:44:20.628Z,41.54
2022-09-05T18:46:08.217Z,39.69
2022-09-05T18:47:58.910Z,40.04
2022-09-05T18:50:06.648Z,38.90
2022-09-05T18:51:31.859Z,40.14
2022-09-05T18:53:13.057Z,40.53
2022-09-05T18:55:31.634Z,41.33
2022-09-05T18:57:19.803Z,40.68
2022-09-05T18:59:15.655Z,40.76
2022-09-05T19:00:49.485Z,41.78
2022-09-05T19:02:26.666Z,41.76
2022-09-05T19:04:39.078Z,42.46
2022-09-05T19:06:35.942Z,42.06
2022-09-05T19:08:26.811Z,42.11
2022-09-05T19:10:35.515Z,42.02
2022-09-05T19:12:31.995Z,41.50
2022-09-05T19:14:26.481Z,41.08
2022-09-05T19:16:33.245Z,42.02
2022-09-05T19:18:36.816Z,42.85
2022-09-05T19:20:31.249Z,42.61
2022-09-05T19:23:09.314Z,40.95
2022-09-05T19:24:02.508Z,41.44
2022-09-05T19:25:40.971Z,41.22
2022-09-05T19:29:01.338Z,41.41
2022-09-05T19:36:45.769Z,41.72
2022-09-05T19:36:48.760Z,42.68
2022-09-05T19:37:07.384Z,42.38
2022-09-05T19:37:13.759Z,43.39
2022-09-05T19:37:24.390Z,43.01
2022-09-05T19:40:38.782Z,42.74
2022-09-05T19:47:27.951Z,42.87
2022-09-05T19:47:42.049Z,43.02
2022-09-05T19:47:43.863Z,42.72
2022-09-05T19:47:47.305Z,43.52
2022-09-05T19:48:29.337Z,43.08
2022-09-05T19:50:09.300Z,43.40
2022-09-05T19:51:41.758Z,43.40
2022-09-05T19:53:16.558Z,43.02
2022-09-05T19:54:51.469Z,42.81
2022-09-05T19:56:33.434Z,41.26
2022-09-05T19:58:19.544Z,42.35
2022-09-05T19:59:54.141Z,42.25
2022-09-05T20:01:28.743Z,42.06
2022-09-05T20:03:01.309Z,42.91
2022-09-05T20:04:41.007Z,42.51
2022-09-05T20:06:29.429Z,43.07
2022-09-05T20:08:05.202Z,42.62
2022-09-05T20:09:43.716Z,43.14
2022-09-05T20:11:37.385Z,43.50
2022-09-05T20:13:23.892Z,43.18
2022-09-05T20:14:56.499Z,43.54
2022-09-05T20:16:30.262Z,43.14
2022-09-05T20:18:20.822Z,43.13
2022-09-05T20:20:08.852Z,43.95
2022-09-05T20:21:41.272Z,43.22
2022-09-05T20:23:14.375Z,44.18
2022-09-05T20:24:48.933Z,43.70
2022-09-05T20:26:23.571Z,42.91
2022-09-05T20:27:56.332Z,43.43
2022-09-05T20:29:56.000Z,43.36
2022-09-05T20:31:33.095Z,43.10
2022-09-05T20:33:19.259Z,43.20
2022-09-05T20:38:14.480Z,43.38
2022-09-05T20:43:11.391Z,43.15
2022-09-05T20:43:14.579Z,43.79
2022-09-05T20:43:30.511Z,43.42
2022-09-05T20:43:31.552Z,43.11
2022-09-05T20:44:33.745Z,43.55
2022-09-05T20:47:05.578Z,42.93
2022-09-05T20:54:06.745Z,43.21
2022-09-05T20:54:14.522Z,43.79
2022-09-05T20:54:17.851Z,43.86
2022-09-05T20:54:22.373Z,43.65
2022-09-05T20:55:41.376Z,43.28
2022-09-05T20:57:17.481Z,44.22
2022-09-05T20:58:51.232Z,44.30
2022-09-05T21:00:24.898Z,43.93
2022-09-05T21:02:02.644Z,43.64
2022-09-05T21:03:40.045Z,44.09
2022-09-05T21:05:20.772Z,43.77
2022-09-05T21:07:08.609Z,44.28
2022-09-05T21:08:41.033Z,45.15
2022-09-05T21:10:18.977Z,45.21
2022-09-05T21:11:51.032Z,44.52
2022-09-05T21:13:29.347Z,44.16
2022-09-05T21:15:25.582Z,44.71
2022-09-05T21:17:06.673Z,44.95
2022-09-05T21:18:48.522Z,45.35
2022-09-05T21:20:23.658Z,44.94
2022-09-05T21:22:09.268Z,45.48
2022-09-05T21:23:41.211Z,45.35
2022-09-05T21:25:19.758Z,45.55
2022-09-05T21:26:51.639Z,45.38
2022-09-05T21:28:40.368Z,45.26
2022-09-05T21:30:32.076Z,45.49
2022-09-05T21:32:10.899Z,46.08
2022-09-05T21:33:45.988Z,45.89
2022-09-05T21:35:35.131Z,45.19
2022-09-05T21:37:08.179Z,44.68
2022-09-05T21:38:41.612Z,44.78
2022-09-05T21:40:14.001Z,44.63
2022-09-05T21:41:50.273Z,45.20
2022-09-05T21:47:39.511Z,44.17
2022-09-05T21:47:44.821Z,44.20
2022-09-05T21:47:48.938Z,43.99
2022-09-05T21:49:18.756Z,45.03
2022-09-05T21:50:52.567Z,44.10
2022-09-05T21:52:27.107Z,44.66
2022-09-05T21:59:16.404Z,44.65
2022-09-05T21:59:16.463Z,44.23
2022-09-05T21:59:24.479Z,44.27
2022-09-05T22:00:05.543Z,43.89
2022-09-05T22:01:52.439Z,44.34
2022-09-05T22:03:24.987Z,43.84
2022-09-05T22:05:03.116Z,44.92
2022-09-05T22:06:35.778Z,44.25
2022-09-05T22:08:07.703Z,44.58
2022-09-05T22:09:39.512Z,44.26
2022-09-05T22:11:14.575Z,44.62
2022-09-05T22:14:23.703Z,44.80
2022-09-05T22:15:57.264Z,44.21
2022-09-05T22:17:29.115Z,45.26
2022-09-05T22:19:01.389Z,45.94
2022-09-05T22:20:34.061Z,45.17
2022-09-05T22:22:09.457Z,44.60
2022-09-05T22:23:47.069Z,46.29
2022-09-05T22:25:29.859Z,46.22
2022-09-05T22:27:12.570Z,46.90
2022-09-05T22:28:53.657Z,47.25
2022-09-05T22:30:26.396Z,48.16
2022-09-05T22:31:58.277Z,47.98
2022-09-05T22:33:31.925Z,47.54
2022-09-05T22:35:27.529Z,47.58
2022-09-05T22:36:57.992Z,48.11
2022-09-05T22:38:30.064Z,47.45
2022-09-05T22:40:02.281Z,47.99
2022-09-05T22:41:34.131Z,48.23
2022-09-05T22:43:07.706Z,48.62
2022-09-05T22:44:42.467Z,48.47
2022-09-05T22:46:14.436Z,48.04
2022-09-05T22:47:46.281Z,49.07
2022-09-05T22:49:18.133Z,48.53
2022-09-05T22:50:50.033Z,49.29
2022-09-05T22:52:21.867Z,48.78
2022-09-05T22:53:53.694Z,49.32
2022-09-05T22:55:25.552Z,49.63
2022-09-05T22:56:57.394Z,49.44
2022-09-05T22:58:29.819Z,49.19
2022-09-05T23:00:01.700Z,49.20
2022-09-05T23:01:33.751Z,49.59
2022-09-05T23:03:06.601Z,49.92
2022-09-05T23:04:38.497Z,49.69
2022-09-05T23:06:10.901Z,49.61
2022-09-05T23:07:42.717Z,49.66
2022-09-05T23:09:14.569Z,49.44
2022-09-05T23:10:46.463Z,50.08
2022-09-05T23:12:18.352Z,50.71
2022-09-05T23:13:50.253Z,49.82
2022-09-05T23:15:22.136Z,50.10
2022-09-05T23:16:53.932Z,50.98
2022-09-05T23:18:29.091Z,51.35
2022-09-05T23:20:01.313Z,50.67
2022-09-05T23:21:34.366Z,51.42
2022-09-05T23:23:06.918Z,51.78
2022-09-05T23:24:38.821Z,52.31
2022-09-05T23:26:12.558Z,52.47
2022-09-05T23:27:44.730Z,52.58
2022-09-05T23:29:16.602Z,52.99
2022-09-05T23:30:49.461Z,52.60
2022-09-05T23:32:21.433Z,52.76
2022-09-05T23:33:55.617Z,52.85
2022-09-05T23:35:27.410Z,54.00
2022-09-05T23:36:59.975Z,53.75
2022-09-05T23:38:31.745Z,53.41